sensor_id;sensor_type;location;lat;lon;timestamp;P1;durP1;ratioP1;P2;durP2;ratioP2
2868;SDS011;1442;47.448;8.582;2022-08-19T00:00:48;15.35;;;12.63;;
2868;SDS011;1442;47.448;8.582;2022-08-19T00:03:17;15.00;;;12.60;;
2868;SDS011;1442;47.448;8.582;2022-08-19T00:05:44;15.70;;;11.50;;
2868;SDS011;1442;47.448;8.582;2022-08-19T00:08:11;13.07;;;11.75;;
2868;SDS011;1442;47.448;8.582;2022-08-19T00:10:38;14.52;;;11.65;;
2868;SDS011;1442;47.448;8.582;2022-08-19T00:13:05;16.10;;;13.48;;
2868;SDS011;1442;47.448;8.582;2022-08-19T00:15:32;17.50;;;14.48;;
2868;SDS011;1442;47.448;8.582;2022-08-19T00:17:59;15.52;;;13.57;;
2868;SDS011;1442;47.448;8.582;2022-08-19T00:20:28;15.57;;;12.90;;
2868;SDS011;1442;47.448;8.582;2022-08-19T00:22:55;14.88;;;13.27;;
2868;SDS011;1442;47.448;8.582;2022-08-19T00:25:22;16.20;;;12.85;;
2868;SDS011;1442;47.448;8.582;2022-08-19T00:27:49;13.40;;;12.00;;
2868;SDS011;1442;47.448;8.582;2022-08-19T00:30:16;13.90;;;12.50;;
2868;SDS011;1442;47.448;8.582;2022-08-19T00:32:43;14.68;;;12.10;;
2868;SDS011;1442;47.448;8.582;2022-08-19T00:35:11;15.23;;;13.05;;
2868;SDS011;1442;47.448;8.582;2022-08-19T00:37:39;14.25;;;11.88;;
2868;SDS011;1442;47.448;8.582;2022-08-19T00:40:08;14.88;;;12.32;;
2868;SDS011;1442;47.448;8.582;2022-08-19T00:42:36;14.40;;;12.75;;
2868;SDS011;1442;47.448;8.582;2022-08-19T00:45:03;17.70;;;13.55;;
2868;SDS011;1442;47.448;8.582;2022-08-19T00:47:35;15.82;;;12.60;;
2868;SDS011;1442;47.448;8.582;2022-08-19T00:50:02;15.35;;;13.25;;
2868;SDS011;1442;47.448;8.582;2022-08-19T00:52:30;17.50;;;12.57;;
2868;SDS011;1442;47.448;8.582;2022-08-19T00:55:00;14.50;;;12.98;;
2868;SDS011;1442;47.448;8.582;2022-08-19T00:57:29;17.42;;;13.18;;
2868;SDS011;1442;47.448;8.582;2022-08-19T00:59:58;13.63;;;12.05;;
2868;SDS011;1442;47.448;8.582;2022-08-19T01:02:26;15.30;;;12.82;;
2868;SDS011;1442;47.448;8.582;2022-08-19T01:04:54;15.80;;;12.00;;
2868;SDS011;1442;47.448;8.582;2022-08-19T01:07:21;13.23;;;11.63;;
2868;SDS011;1442;47.448;8.582;2022-08-19T01:09:48;13.30;;;11.85;;
2868;SDS011;1442;47.448;8.582;2022-08-19T01:12:17;13.05;;;11.32;;
2868;SDS011;1442;47.448;8.582;2022-08-19T01:14:44;12.25;;;10.95;;
2868;SDS011;1442;47.448;8.582;2022-08-19T01:17:12;13.57;;;12.00;;
2868;SDS011;1442;47.448;8.582;2022-08-19T01:19:40;15.30;;;12.95;;
2868;SDS011;1442;47.448;8.582;2022-08-19T01:22:09;15.02;;;13.20;;
2868;SDS011;1442;47.448;8.582;2022-08-19T01:24:39;15.75;;;12.93;;
2868;SDS011;1442;47.448;8.582;2022-08-19T01:27:07;16.63;;;11.90;;
2868;SDS011;1442;47.448;8.582;2022-08-19T01:29:36;16.27;;;12.32;;
2868;SDS011;1442;47.448;8.582;2022-08-19T01:32:03;17.80;;;13.07;;
2868;SDS011;1442;47.448;8.582;2022-08-19T01:34:31;16.80;;;13.15;;
2868;SDS011;1442;47.448;8.582;2022-08-19T01:36:59;13.98;;;11.80;;
2868;SDS011;1442;47.448;8.582;2022-08-19T01:39:28;14.77;;;12.50;;
2868;SDS011;1442;47.448;8.582;2022-08-19T01:41:56;16.00;;;12.65;;
2868;SDS011;1442;47.448;8.582;2022-08-19T01:46:55;16.50;;;12.82;;
2868;SDS011;1442;47.448;8.582;2022-08-19T01:49:23;15.38;;;12.40;;
2868;SDS011;1442;47.448;8.582;2022-08-19T01:51:51;16.75;;;13.85;;
2868;SDS011;1442;47.448;8.582;2022-08-19T01:54:19;15.13;;;13.50;;
2868;SDS011;1442;47.448;8.582;2022-08-19T01:56:48;15.68;;;13.80;;
2868;SDS011;1442;47.448;8.582;2022-08-19T01:59:19;17.05;;;14.45;;
2868;SDS011;1442;47.448;8.582;2022-08-19T02:01:47;20.52;;;15.10;;
2868;SDS011;1442;47.448;8.582;2022-08-19T02:04:14;17.10;;;14.00;;
2868;SDS011;1442;47.448;8.582;2022-08-19T02:06:41;15.57;;;13.77;;
2868;SDS011;1442;47.448;8.582;2022-08-19T02:09:09;17.45;;;14.32;;
2868;SDS011;1442;47.448;8.582;2022-08-19T02:11:36;16.67;;;13.65;;
2868;SDS011;1442;47.448;8.582;2022-08-19T02:14:04;16.95;;;14.25;;
2868;SDS011;1442;47.448;8.582;2022-08-19T02:16:33;14.90;;;13.07;;
2868;SDS011;1442;47.448;8.582;2022-08-19T02:19:01;15.63;;;13.32;;
2868;SDS011;1442;47.448;8.582;2022-08-19T02:21:29;19.10;;;14.70;;
2868;SDS011;1442;47.448;8.582;2022-08-19T02:23:56;15.32;;;13.55;;
2868;SDS011;1442;47.448;8.582;2022-08-19T02:26:23;16.77;;;14.07;;
2868;SDS011;1442;47.448;8.582;2022-08-19T02:28:51;15.95;;;13.43;;
2868;SDS011;1442;47.448;8.582;2022-08-19T02:31:20;18.55;;;13.23;;
2868;SDS011;1442;47.448;8.582;2022-08-19T02:33:49;17.98;;;14.25;;
2868;SDS011;1442;47.448;8.582;2022-08-19T02:36:17;20.83;;;15.75;;
2868;SDS011;1442;47.448;8.582;2022-08-19T02:38:44;20.42;;;16.52;;
2868;SDS011;1442;47.448;8.582;2022-08-19T02:41:11;19.27;;;16.73;;
2868;SDS011;1442;47.448;8.582;2022-08-19T02:43:38;18.55;;;15.43;;
2868;SDS011;1442;47.448;8.582;2022-08-19T02:46:11;18.52;;;15.43;;
2868;SDS011;1442;47.448;8.582;2022-08-19T02:48:38;22.98;;;15.55;;
2868;SDS011;1442;47.448;8.582;2022-08-19T02:51:07;19.05;;;14.63;;
2868;SDS011;1442;47.448;8.582;2022-08-19T02:53:34;18.73;;;14.15;;
2868;SDS011;1442;47.448;8.582;2022-08-19T02:56:05;18.33;;;15.30;;
2868;SDS011;1442;47.448;8.582;2022-08-19T02:58:32;24.50;;;16.67;;
2868;SDS011;1442;47.448;8.582;2022-08-19T03:00:59;20.65;;;16.77;;
2868;SDS011;1442;47.448;8.582;2022-08-19T03:03:27;20.00;;;16.30;;
2868;SDS011;1442;47.448;8.582;2022-08-19T03:06:09;24.27;;;17.77;;
2868;SDS011;1442;47.448;8.582;2022-08-19T03:08:38;23.27;;;16.48;;
2868;SDS011;1442;47.448;8.582;2022-08-19T03:11:06;22.05;;;16.00;;
2868;SDS011;1442;47.448;8.582;2022-08-19T03:16:03;19.40;;;16.33;;
2868;SDS011;1442;47.448;8.582;2022-08-19T03:18:31;17.83;;;15.90;;
2868;SDS011;1442;47.448;8.582;2022-08-19T03:20:58;20.85;;;17.02;;
2868;SDS011;1442;47.448;8.582;2022-08-19T03:23:26;23.23;;;17.83;;
2868;SDS011;1442;47.448;8.582;2022-08-19T03:25:53;25.25;;;19.48;;
2868;SDS011;1442;47.448;8.582;2022-08-19T03:28:21;24.58;;;19.63;;
2868;SDS011;1442;47.448;8.582;2022-08-19T03:30:55;25.33;;;20.05;;
2868;SDS011;1442;47.448;8.582;2022-08-19T03:33:23;24.65;;;19.17;;
2868;SDS011;1442;47.448;8.582;2022-08-19T03:35:59;27.20;;;19.83;;
2868;SDS011;1442;47.448;8.582;2022-08-19T03:38:28;28.58;;;20.27;;
2868;SDS011;1442;47.448;8.582;2022-08-19T03:40:55;26.27;;;20.15;;
2868;SDS011;1442;47.448;8.582;2022-08-19T03:43:22;24.77;;;19.95;;
2868;SDS011;1442;47.448;8.582;2022-08-19T03:45:49;26.85;;;21.00;;
2868;SDS011;1442;47.448;8.582;2022-08-19T03:48:25;32.08;;;22.55;;
2868;SDS011;1442;47.448;8.582;2022-08-19T03:50:52;27.00;;;21.40;;
2868;SDS011;1442;47.448;8.582;2022-08-19T03:53:20;27.33;;;21.42;;
2868;SDS011;1442;47.448;8.582;2022-08-19T03:55:48;31.25;;;23.00;;
2868;SDS011;1442;47.448;8.582;2022-08-19T03:58:15;31.20;;;21.80;;
2868;SDS011;1442;47.448;8.582;2022-08-19T04:00:42;28.65;;;21.35;;
2868;SDS011;1442;47.448;8.582;2022-08-19T04:03:10;29.60;;;20.95;;
2868;SDS011;1442;47.448;8.582;2022-08-19T04:05:37;28.25;;;22.08;;
2868;SDS011;1442;47.448;8.582;2022-08-19T04:08:04;24.70;;;20.77;;
2868;SDS011;1442;47.448;8.582;2022-08-19T04:10:31;27.20;;;21.10;;
2868;SDS011;1442;47.448;8.582;2022-08-19T04:13:03;29.05;;;22.67;;
2868;SDS011;1442;47.448;8.582;2022-08-19T04:15:31;25.08;;;19.88;;
2868;SDS011;1442;47.448;8.582;2022-08-19T04:18:04;27.17;;;21.40;;
2868;SDS011;1442;47.448;8.582;2022-08-19T04:20:32;26.83;;;21.77;;
2868;SDS011;1442;47.448;8.582;2022-08-19T04:22:59;25.83;;;21.27;;
2868;SDS011;1442;47.448;8.582;2022-08-19T04:25:27;31.70;;;21.70;;
2868;SDS011;1442;47.448;8.582;2022-08-19T04:27:54;27.70;;;22.75;;
2868;SDS011;1442;47.448;8.582;2022-08-19T04:30:22;28.63;;;22.50;;
2868;SDS011;1442;47.448;8.582;2022-08-19T04:32:49;26.52;;;22.70;;
2868;SDS011;1442;47.448;8.582;2022-08-19T04:35:16;37.50;;;23.15;;
2868;SDS011;1442;47.448;8.582;2022-08-19T04:37:43;30.77;;;23.63;;
2868;SDS011;1442;47.448;8.582;2022-08-19T04:40:11;32.45;;;23.65;;
2868;SDS011;1442;47.448;8.582;2022-08-19T04:42:55;29.48;;;21.67;;
2868;SDS011;1442;47.448;8.582;2022-08-19T04:45:24;27.50;;;22.20;;
2868;SDS011;1442;47.448;8.582;2022-08-19T04:47:54;28.63;;;21.60;;
2868;SDS011;1442;47.448;8.582;2022-08-19T04:50:22;24.90;;;20.05;;
2868;SDS011;1442;47.448;8.582;2022-08-19T04:52:50;27.77;;;21.42;;
2868;SDS011;1442;47.448;8.582;2022-08-19T04:55:17;25.30;;;20.30;;
2868;SDS011;1442;47.448;8.582;2022-08-19T04:57:44;26.17;;;20.83;;
2868;SDS011;1442;47.448;8.582;2022-08-19T05:00:11;27.67;;;21.50;;
2868;SDS011;1442;47.448;8.582;2022-08-19T05:02:40;25.48;;;20.77;;
2868;SDS011;1442;47.448;8.582;2022-08-19T05:05:07;32.70;;;22.48;;
2868;SDS011;1442;47.448;8.582;2022-08-19T05:07:35;26.83;;;22.27;;
2868;SDS011;1442;47.448;8.582;2022-08-19T05:10:02;30.00;;;21.30;;
2868;SDS011;1442;47.448;8.582;2022-08-19T05:12:29;24.23;;;20.63;;
2868;SDS011;1442;47.448;8.582;2022-08-19T05:14:56;24.15;;;20.48;;
2868;SDS011;1442;47.448;8.582;2022-08-19T05:17:24;23.38;;;20.50;;
2868;SDS011;1442;47.448;8.582;2022-08-19T05:19:53;25.45;;;20.08;;
2868;SDS011;1442;47.448;8.582;2022-08-19T05:22:37;25.58;;;19.63;;
2868;SDS011;1442;47.448;8.582;2022-08-19T05:25:06;25.63;;;19.85;;
2868;SDS011;1442;47.448;8.582;2022-08-19T05:27:34;24.35;;;20.35;;
2868;SDS011;1442;47.448;8.582;2022-08-19T05:30:02;24.55;;;18.35;;
2868;SDS011;1442;47.448;8.582;2022-08-19T05:32:30;20.30;;;17.42;;
2868;SDS011;1442;47.448;8.582;2022-08-19T05:34:58;27.48;;;19.90;;
2868;SDS011;1442;47.448;8.582;2022-08-19T05:37:25;24.02;;;19.00;;
2868;SDS011;1442;47.448;8.582;2022-08-19T05:39:53;21.67;;;19.10;;
2868;SDS011;1442;47.448;8.582;2022-08-19T05:42:20;27.77;;;18.60;;
2868;SDS011;1442;47.448;8.582;2022-08-19T05:44:48;22.63;;;17.25;;
2868;SDS011;1442;47.448;8.582;2022-08-19T05:47:15;19.92;;;16.15;;
2868;SDS011;1442;47.448;8.582;2022-08-19T05:49:44;22.58;;;15.68;;
2868;SDS011;1442;47.448;8.582;2022-08-19T05:52:13;19.80;;;16.35;;
2868;SDS011;1442;47.448;8.582;2022-08-19T05:54:42;19.05;;;15.50;;
2868;SDS011;1442;47.448;8.582;2022-08-19T05:57:14;17.08;;;15.10;;
2868;SDS011;1442;47.448;8.582;2022-08-19T05:59:41;22.67;;;16.17;;
2868;SDS011;1442;47.448;8.582;2022-08-19T06:02:09;17.88;;;15.35;;
2868;SDS011;1442;47.448;8.582;2022-08-19T06:04:36;22.40;;;15.48;;
2868;SDS011;1442;47.448;8.582;2022-08-19T06:07:04;20.00;;;16.63;;
2868;SDS011;1442;47.448;8.582;2022-08-19T06:09:33;20.55;;;16.25;;
2868;SDS011;1442;47.448;8.582;2022-08-19T06:12:00;26.70;;;16.77;;
2868;SDS011;1442;47.448;8.582;2022-08-19T06:14:28;19.85;;;17.02;;
2868;SDS011;1442;47.448;8.582;2022-08-19T06:16:56;22.33;;;16.52;;
2868;SDS011;1442;47.448;8.582;2022-08-19T06:19:27;18.95;;;16.58;;
2868;SDS011;1442;47.448;8.582;2022-08-19T06:21:55;23.58;;;16.08;;
2868;SDS011;1442;47.448;8.582;2022-08-19T06:24:23;23.35;;;17.38;;
2868;SDS011;1442;47.448;8.582;2022-08-19T06:26:52;18.23;;;15.88;;
2868;SDS011;1442;47.448;8.582;2022-08-19T06:29:21;22.58;;;16.63;;
2868;SDS011;1442;47.448;8.582;2022-08-19T06:31:49;21.05;;;15.07;;
2868;SDS011;1442;47.448;8.582;2022-08-19T06:34:17;17.02;;;13.55;;
2868;SDS011;1442;47.448;8.582;2022-08-19T06:36:45;17.55;;;15.23;;
2868;SDS011;1442;47.448;8.582;2022-08-19T06:39:13;20.30;;;14.63;;
2868;SDS011;1442;47.448;8.582;2022-08-19T06:41:42;18.83;;;16.15;;
2868;SDS011;1442;47.448;8.582;2022-08-19T06:44:11;20.75;;;15.15;;
2868;SDS011;1442;47.448;8.582;2022-08-19T06:46:38;18.30;;;16.15;;
2868;SDS011;1442;47.448;8.582;2022-08-19T06:49:06;18.45;;;14.27;;
2868;SDS011;1442;47.448;8.582;2022-08-19T06:51:35;15.98;;;14.05;;
2868;SDS011;1442;47.448;8.582;2022-08-19T07:21:06;16.05;;;14.35;;
2868;SDS011;1442;47.448;8.582;2022-08-19T07:23:34;18.75;;;14.93;;
2868;SDS011;1442;47.448;8.582;2022-08-19T07:26:04;17.08;;;14.82;;
2868;SDS011;1442;47.448;8.582;2022-08-19T07:28:31;17.02;;;14.65;;
2868;SDS011;1442;47.448;8.582;2022-08-19T07:30:58;17.23;;;14.68;;
2868;SDS011;1442;47.448;8.582;2022-08-19T07:33:26;18.73;;;14.80;;
2868;SDS011;1442;47.448;8.582;2022-08-19T07:35:57;17.13;;;13.88;;
2868;SDS011;1442;47.448;8.582;2022-08-19T07:38:25;16.80;;;14.43;;
2868;SDS011;1442;47.448;8.582;2022-08-19T07:40:52;14.90;;;13.13;;
2868;SDS011;1442;47.448;8.582;2022-08-19T07:43:19;18.20;;;13.73;;
2868;SDS011;1442;47.448;8.582;2022-08-19T07:45:50;16.67;;;13.68;;
2868;SDS011;1442;47.448;8.582;2022-08-19T07:48:18;15.68;;;13.43;;
2868;SDS011;1442;47.448;8.582;2022-08-19T07:50:45;19.73;;;13.45;;
2868;SDS011;1442;47.448;8.582;2022-08-19T07:53:13;16.25;;;12.55;;
2868;SDS011;1442;47.448;8.582;2022-08-19T07:55:41;16.70;;;13.80;;
2868;SDS011;1442;47.448;8.582;2022-08-19T07:58:09;14.68;;;13.10;;
2868;SDS011;1442;47.448;8.582;2022-08-19T08:00:36;11.40;;;9.82;;
2868;SDS011;1442;47.448;8.582;2022-08-19T08:18:26;11.70;;;9.57;;
2868;SDS011;1442;47.448;8.582;2022-08-19T08:20:53;13.20;;;9.48;;
2868;SDS011;1442;47.448;8.582;2022-08-19T08:23:20;11.93;;;9.25;;
2868;SDS011;1442;47.448;8.582;2022-08-19T08:25:51;11.18;;;8.52;;
2868;SDS011;1442;47.448;8.582;2022-08-19T08:28:19;11.20;;;9.45;;
2868;SDS011;1442;47.448;8.582;2022-08-19T08:30:48;12.43;;;9.70;;
2868;SDS011;1442;47.448;8.582;2022-08-19T08:33:17;10.07;;;8.52;;
2868;SDS011;1442;47.448;8.582;2022-08-19T08:35:46;10.55;;;9.45;;
2868;SDS011;1442;47.448;8.582;2022-08-19T08:38:14;12.40;;;9.60;;
2868;SDS011;1442;47.448;8.582;2022-08-19T08:40:44;14.55;;;10.77;;
2868;SDS011;1442;47.448;8.582;2022-08-19T08:43:18;15.15;;;13.23;;
2868;SDS011;1442;47.448;8.582;2022-08-19T08:45:50;19.65;;;15.32;;
2868;SDS011;1442;47.448;8.582;2022-08-19T08:48:20;20.93;;;15.67;;
2868;SDS011;1442;47.448;8.582;2022-08-19T08:50:50;20.25;;;16.00;;
2868;SDS011;1442;47.448;8.582;2022-08-19T08:53:19;20.30;;;16.42;;
2868;SDS011;1442;47.448;8.582;2022-08-19T08:55:47;18.95;;;15.95;;
2868;SDS011;1442;47.448;8.582;2022-08-19T08:58:16;20.35;;;18.25;;
2868;SDS011;1442;47.448;8.582;2022-08-19T09:00:46;21.23;;;18.83;;
2868;SDS011;1442;47.448;8.582;2022-08-19T09:03:16;22.23;;;19.00;;
2868;SDS011;1442;47.448;8.582;2022-08-19T09:05:45;21.33;;;18.30;;
2868;SDS011;1442;47.448;8.582;2022-08-19T09:08:21;21.70;;;19.40;;
2868;SDS011;1442;47.448;8.582;2022-08-19T09:10:52;22.67;;;20.27;;
2868;SDS011;1442;47.448;8.582;2022-08-19T09:13:21;23.75;;;20.50;;
2868;SDS011;1442;47.448;8.582;2022-08-19T09:15:52;25.17;;;22.08;;
2868;SDS011;1442;47.448;8.582;2022-08-19T09:18:21;24.35;;;21.80;;
2868;SDS011;1442;47.448;8.582;2022-08-19T09:20:48;25.00;;;22.30;;
2868;SDS011;1442;47.448;8.582;2022-08-19T09:23:16;28.17;;;20.83;;
2868;SDS011;1442;47.448;8.582;2022-08-19T09:25:44;26.40;;;20.00;;
2868;SDS011;1442;47.448;8.582;2022-08-19T09:28:11;26.33;;;20.45;;
2868;SDS011;1442;47.448;8.582;2022-08-19T09:30:40;26.15;;;21.05;;
2868;SDS011;1442;47.448;8.582;2022-08-19T13:27:26;24.50;;;19.00;;
2868;SDS011;1442;47.448;8.582;2022-08-19T13:29:53;23.55;;;18.75;;
2868;SDS011;1442;47.448;8.582;2022-08-19T13:32:38;28.43;;;24.33;;
2868;SDS011;1442;47.448;8.582;2022-08-19T13:35:22;20.13;;;17.97;;
2868;SDS011;1442;47.448;8.582;2022-08-19T13:37:49;17.95;;;15.52;;
2868;SDS011;1442;47.448;8.582;2022-08-19T13:40:17;18.83;;;14.07;;
2868;SDS011;1442;47.448;8.582;2022-08-19T13:42:49;21.05;;;18.67;;
2868;SDS011;1442;47.448;8.582;2022-08-19T13:45:17;18.33;;;15.20;;
2868;SDS011;1442;47.448;8.582;2022-08-19T13:47:45;22.15;;;18.20;;
2868;SDS011;1442;47.448;8.582;2022-08-19T13:50:13;18.75;;;16.15;;
2868;SDS011;1442;47.448;8.582;2022-08-19T13:52:41;31.17;;;18.35;;
2868;SDS011;1442;47.448;8.582;2022-08-19T13:55:09;23.23;;;18.42;;
2868;SDS011;1442;47.448;8.582;2022-08-19T13:57:36;20.63;;;16.27;;
2868;SDS011;1442;47.448;8.582;2022-08-19T14:00:06;21.08;;;17.85;;
2868;SDS011;1442;47.448;8.582;2022-08-19T14:02:35;22.63;;;17.17;;
2868;SDS011;1442;47.448;8.582;2022-08-19T14:05:04;18.60;;;16.58;;
2868;SDS011;1442;47.448;8.582;2022-08-19T14:07:31;21.58;;;18.77;;
2868;SDS011;1442;47.448;8.582;2022-08-19T14:09:58;20.95;;;17.52;;
2868;SDS011;1442;47.448;8.582;2022-08-19T14:12:25;18.35;;;16.20;;
2868;SDS011;1442;47.448;8.582;2022-08-19T14:14:52;24.23;;;20.92;;
2868;SDS011;1442;47.448;8.582;2022-08-19T14:17:21;19.52;;;16.98;;
2868;SDS011;1442;47.448;8.582;2022-08-19T14:19:48;22.80;;;19.13;;
2868;SDS011;1442;47.448;8.582;2022-08-19T14:22:15;19.92;;;16.90;;
2868;SDS011;1442;47.448;8.582;2022-08-19T14:24:42;19.15;;;17.05;;
2868;SDS011;1442;47.448;8.582;2022-08-19T14:27:09;18.60;;;13.98;;
2868;SDS011;1442;47.448;8.582;2022-08-19T14:29:36;26.52;;;18.75;;
2868;SDS011;1442;47.448;8.582;2022-08-19T14:32:04;17.70;;;15.93;;
2868;SDS011;1442;47.448;8.582;2022-08-19T14:34:32;22.02;;;16.40;;
2868;SDS011;1442;47.448;8.582;2022-08-19T14:37:02;19.63;;;17.30;;
2868;SDS011;1442;47.448;8.582;2022-08-19T14:39:31;19.27;;;16.77;;
2868;SDS011;1442;47.448;8.582;2022-08-19T14:41:58;19.80;;;17.70;;
2868;SDS011;1442;47.448;8.582;2022-08-19T14:44:26;17.27;;;15.40;;
2868;SDS011;1442;47.448;8.582;2022-08-19T14:46:53;20.60;;;18.13;;
2868;SDS011;1442;47.448;8.582;2022-08-19T14:49:20;22.70;;;18.08;;
2868;SDS011;1442;47.448;8.582;2022-08-19T14:51:49;24.17;;;18.42;;
2868;SDS011;1442;47.448;8.582;2022-08-19T14:54:16;20.38;;;16.33;;
2868;SDS011;1442;47.448;8.582;2022-08-19T14:56:43;24.55;;;20.85;;
2868;SDS011;1442;47.448;8.582;2022-08-19T14:59:10;30.67;;;22.95;;
2868;SDS011;1442;47.448;8.582;2022-08-19T15:01:37;26.85;;;21.52;;
2868;SDS011;1442;47.448;8.582;2022-08-19T15:04:05;28.33;;;22.65;;
2868;SDS011;1442;47.448;8.582;2022-08-19T15:06:32;26.20;;;22.08;;
2868;SDS011;1442;47.448;8.582;2022-08-19T15:09:00;27.25;;;23.48;;
